sensor_id;sensor_type;location;lat;lon;timestamp;pressure;altitude;pressure_sealevel;temperature;humidity
40285;BME280;25997;50.214;19.354;2023-11-22T00:02:36;97931.31;;;1.68;61.71
40285;BME280;25997;50.214;19.354;2023-11-22T00:05:39;97939.22;;;1.71;61.95
40285;BME280;25997;50.214;19.354;2023-11-22T00:08:44;97948.72;;;1.71;61.71
40285;BME280;25997;50.214;19.354;2023-11-22T00:11:46;97946.91;;;1.70;61.83
40285;BME280;25997;50.214;19.354;2023-11-22T00:14:49;97955.66;;;1.72;61.97
40285;BME280;25997;50.214;19.354;2023-11-22T00:17:52;97952.16;;;1.71;61.87
40285;BME280;25997;50.214;19.354;2023-11-22T00:20:55;97950.56;;;1.73;61.73
40285;BME280;25997;50.214;19.354;2023-11-22T00:24:00;97968.78;;;1.75;61.91
40285;BME280;25997;50.214;19.354;2023-11-22T00:27:03;97965.09;;;1.71;61.92
40285;BME280;25997;50.214;19.354;2023-11-22T00:30:06;97976.28;;;1.70;61.64
40285;BME280;25997;50.214;19.354;2023-11-22T00:33:10;97984.19;;;1.73;61.88
40285;BME280;25997;50.214;19.354;2023-11-22T00:36:13;97985.94;;;1.73;61.87
40285;BME280;25997;50.214;19.354;2023-11-22T00:39:19;97982.63;;;1.75;62.03
40285;BME280;25997;50.214;19.354;2023-11-22T00:42:21;97988.84;;;1.79;61.77
40285;BME280;25997;50.214;19.354;2023-11-22T00:45:24;97983.50;;;1.76;61.42
40285;BME280;25997;50.214;19.354;2023-11-22T00:48:27;97975.47;;;1.71;61.48
40285;BME280;25997;50.214;19.354;2023-11-22T00:51:29;97989.09;;;1.54;61.42
40285;BME280;25997;50.214;19.354;2023-11-22T00:54:34;97985.31;;;1.35;61.52
40285;BME280;25997;50.214;19.354;2023-11-22T00:57:37;97978.53;;;1.22;61.83
40285;BME280;25997;50.214;19.354;2023-11-22T01:00:39;97987.78;;;1.18;61.73
40285;BME280;25997;50.214;19.354;2023-11-22T01:03:42;97988.88;;;1.22;61.88
40285;BME280;25997;50.214;19.354;2023-11-22T01:06:44;97985.66;;;1.26;61.79
40285;BME280;25997;50.214;19.354;2023-11-22T01:09:48;97996.09;;;1.28;61.75
40285;BME280;25997;50.214;19.354;2023-11-22T01:12:51;97995.63;;;1.20;61.63
40285;BME280;25997;50.214;19.354;2023-11-22T01:15:54;97998.13;;;1.18;61.87
40285;BME280;25997;50.214;19.354;2023-11-22T01:18:57;97998.31;;;1.21;61.32
40285;BME280;25997;50.214;19.354;2023-11-22T01:21:59;98002.22;;;1.15;61.46
40285;BME280;25997;50.214;19.354;2023-11-22T01:25:04;98008.81;;;1.24;61.62
40285;BME280;25997;50.214;19.354;2023-11-22T01:28:06;98006.53;;;1.29;61.34
40285;BME280;25997;50.214;19.354;2023-11-22T01:31:12;98005.66;;;1.29;61.47
40285;BME280;25997;50.214;19.354;2023-11-22T01:34:15;98008.53;;;1.33;61.45
40285;BME280;25997;50.214;19.354;2023-11-22T01:37:18;98010.66;;;1.40;61.31
40285;BME280;25997;50.214;19.354;2023-11-22T01:40:23;98007.19;;;1.40;61.46
40285;BME280;25997;50.214;19.354;2023-11-22T01:43:27;98014.69;;;1.35;61.30
40285;BME280;25997;50.214;19.354;2023-11-22T01:46:30;98025.81;;;1.34;61.12
40285;BME280;25997;50.214;19.354;2023-11-22T01:49:36;98030.34;;;1.38;61.51
40285;BME280;25997;50.214;19.354;2023-11-22T01:52:39;98034.94;;;1.42;61.37
40285;BME280;25997;50.214;19.354;2023-11-22T01:55:43;98031.81;;;1.48;61.39
40285;BME280;25997;50.214;19.354;2023-11-22T01:58:47;98033.63;;;1.49;61.13
40285;BME280;25997;50.214;19.354;2023-11-22T02:01:51;98036.72;;;1.43;61.18
40285;BME280;25997;50.214;19.354;2023-11-22T02:04:55;98031.91;;;1.49;61.17
40285;BME280;25997;50.214;19.354;2023-11-22T02:07:57;98030.75;;;1.44;61.20
40285;BME280;25997;50.214;19.354;2023-11-22T02:11:02;98024.84;;;1.47;61.31
40285;BME280;25997;50.214;19.354;2023-11-22T02:14:05;98026.13;;;1.53;61.37
40285;BME280;25997;50.214;19.354;2023-11-22T02:17:08;98025.88;;;1.63;61.32
40285;BME280;25997;50.214;19.354;2023-11-22T02:20:11;98029.44;;;1.65;61.34
40285;BME280;25997;50.214;19.354;2023-11-22T02:23:15;98033.84;;;1.66;61.06
40285;BME280;25997;50.214;19.354;2023-11-22T02:26:19;98040.16;;;1.71;61.07
40285;BME280;25997;50.214;19.354;2023-11-22T02:29:21;98043.47;;;1.69;60.88
40285;BME280;25997;50.214;19.354;2023-11-22T02:32:24;98044.97;;;1.65;60.87
40285;BME280;25997;50.214;19.354;2023-11-22T02:35:29;98051.03;;;1.66;61.11
40285;BME280;25997;50.214;19.354;2023-11-22T02:38:34;98053.28;;;1.60;60.95
40285;BME280;25997;50.214;19.354;2023-11-22T02:41:37;98050.53;;;1.44;60.93
40285;BME280;25997;50.214;19.354;2023-11-22T02:44:39;98066.69;;;1.40;61.18
40285;BME280;25997;50.214;19.354;2023-11-22T02:47:42;98062.63;;;1.30;60.99
40285;BME280;25997;50.214;19.354;2023-11-22T02:50:48;98074.56;;;1.28;61.28
40285;BME280;25997;50.214;19.354;2023-11-22T02:53:53;98079.22;;;1.34;61.07
40285;BME280;25997;50.214;19.354;2023-11-22T02:56:56;98074.31;;;1.38;61.42
40285;BME280;25997;50.214;19.354;2023-11-22T02:59:58;98098.13;;;1.33;60.83
40285;BME280;25997;50.214;19.354;2023-11-22T03:03:01;98102.31;;;1.31;61.04
40285;BME280;25997;50.214;19.354;2023-11-22T03:06:06;98099.53;;;1.28;60.96
40285;BME280;25997;50.214;19.354;2023-11-22T03:09:10;98115.84;;;1.27;61.11
40285;BME280;25997;50.214;19.354;2023-11-22T03:12:16;98109.66;;;1.24;60.88
40285;BME280;25997;50.214;19.354;2023-11-22T03:15:19;98129.19;;;1.19;60.83
40285;BME280;25997;50.214;19.354;2023-11-22T03:18:22;98121.59;;;1.22;61.35
40285;BME280;25997;50.214;19.354;2023-11-22T03:21:24;98130.47;;;1.26;60.94
40285;BME280;25997;50.214;19.354;2023-11-22T03:24:30;98130.97;;;1.20;60.71
40285;BME280;25997;50.214;19.354;2023-11-22T03:27:33;98135.16;;;1.18;60.85
40285;BME280;25997;50.214;19.354;2023-11-22T03:30:36;98144.19;;;1.12;60.99
40285;BME280;25997;50.214;19.354;2023-11-22T03:33:38;98144.69;;;1.19;60.64
40285;BME280;25997;50.214;19.354;2023-11-22T03:36:41;98148.47;;;1.11;60.65
40285;BME280;25997;50.214;19.354;2023-11-22T03:39:45;98151.56;;;1.06;60.64
40285;BME280;25997;50.214;19.354;2023-11-22T03:42:49;98154.47;;;0.97;60.73
40285;BME280;25997;50.214;19.354;2023-11-22T03:45:52;98159.94;;;1.02;60.83
40285;BME280;25997;50.214;19.354;2023-11-22T03:48:54;98163.59;;;1.05;60.71
40285;BME280;25997;50.214;19.354;2023-11-22T03:51:57;98178.13;;;1.03;60.71
40285;BME280;25997;50.214;19.354;2023-11-22T03:55:01;98184.97;;;1.03;60.74
40285;BME280;25997;50.214;19.354;2023-11-22T03:58:04;98185.66;;;0.87;60.44
40285;BME280;25997;50.214;19.354;2023-11-22T04:01:07;98196.91;;;0.88;60.63
40285;BME280;25997;50.214;19.354;2023-11-22T04:04:09;98208.53;;;0.94;60.73
40285;BME280;25997;50.214;19.354;2023-11-22T04:07:12;98216.38;;;0.96;60.53
40285;BME280;25997;50.214;19.354;2023-11-22T04:10:16;98213.41;;;1.03;60.59
40285;BME280;25997;50.214;19.354;2023-11-22T04:13:20;98230.41;;;0.99;60.38
40285;BME280;25997;50.214;19.354;2023-11-22T04:16:24;98220.56;;;1.07;60.68
40285;BME280;25997;50.214;19.354;2023-11-22T04:19:26;98228.75;;;1.13;60.74
40285;BME280;25997;50.214;19.354;2023-11-22T04:22:29;98242.25;;;1.22;60.68
40285;BME280;25997;50.214;19.354;2023-11-22T04:25:33;98246.31;;;1.05;59.99
40285;BME280;25997;50.214;19.354;2023-11-22T04:28:36;98255.28;;;0.97;60.44
40285;BME280;25997;50.214;19.354;2023-11-22T04:31:39;98253.47;;;0.96;60.61
40285;BME280;25997;50.214;19.354;2023-11-22T04:34:41;98254.88;;;1.04;60.85
40285;BME280;25997;50.214;19.354;2023-11-22T04:37:44;98263.59;;;0.93;60.48
40285;BME280;25997;50.214;19.354;2023-11-22T04:40:49;98268.06;;;0.96;60.75
40285;BME280;25997;50.214;19.354;2023-11-22T04:43:52;98273.16;;;0.94;60.94
40285;BME280;25997;50.214;19.354;2023-11-22T04:46:54;98272.84;;;0.90;60.46
40285;BME280;25997;50.214;19.354;2023-11-22T04:49:57;98273.91;;;0.93;60.49
40285;BME280;25997;50.214;19.354;2023-11-22T04:53:00;98287.75;;;0.94;60.67
40285;BME280;25997;50.214;19.354;2023-11-22T04:56:06;98292.53;;;0.88;60.39
40285;BME280;25997;50.214;19.354;2023-11-22T04:59:08;98307.94;;;0.86;60.50
40285;BME280;25997;50.214;19.354;2023-11-22T05:02:11;98312.28;;;0.87;60.27
40285;BME280;25997;50.214;19.354;2023-11-22T05:05:14;98326.78;;;0.85;60.45
40285;BME280;25997;50.214;19.354;2023-11-22T05:08:17;98332.19;;;0.88;60.37
40285;BME280;25997;50.214;19.354;2023-11-22T05:11:21;98331.56;;;0.79;60.09
40285;BME280;25997;50.214;19.354;2023-11-22T05:14:24;98338.28;;;0.64;60.12
40285;BME280;25997;50.214;19.354;2023-11-22T05:17:27;98341.16;;;0.44;60.15
40285;BME280;25997;50.214;19.354;2023-11-22T05:20:30;98356.84;;;0.47;60.75
40285;BME280;25997;50.214;19.354;2023-11-22T05:23:33;98348.31;;;0.36;60.52
40285;BME280;25997;50.214;19.354;2023-11-22T05:26:40;98342.25;;;0.47;60.63
40285;BME280;25997;50.214;19.354;2023-11-22T05:29:42;98349.56;;;0.41;60.69
40285;BME280;25997;50.214;19.354;2023-11-22T05:32:45;98351.91;;;0.50;60.55
40285;BME280;25997;50.214;19.354;2023-11-22T05:35:48;98353.22;;;0.57;60.67
40285;BME280;25997;50.214;19.354;2023-11-22T05:38:50;98363.78;;;0.60;60.44
40285;BME280;25997;50.214;19.354;2023-11-22T05:41:54;98363.72;;;0.46;60.41
40285;BME280;25997;50.214;19.354;2023-11-22T05:44:57;98362.47;;;0.53;60.34
40285;BME280;25997;50.214;19.354;2023-11-22T05:48:00;98355.25;;;0.49;60.30
40285;BME280;25997;50.214;19.354;2023-11-22T05:51:03;98362.69;;;0.44;60.25
40285;BME280;25997;50.214;19.354;2023-11-22T05:54:06;98362.47;;;0.41;60.21
40285;BME280;25997;50.214;19.354;2023-11-22T05:57:11;98372.38;;;0.35;60.39
40285;BME280;25997;50.214;19.354;2023-11-22T06:00:14;98374.16;;;0.36;60.47
40285;BME280;25997;50.214;19.354;2023-11-22T06:03:17;98379.91;;;0.44;60.22
40285;BME280;25997;50.214;19.354;2023-11-22T06:06:20;98385.25;;;0.47;60.00
40285;BME280;25997;50.214;19.354;2023-11-22T06:09:23;98393.66;;;0.56;60.19
40285;BME280;25997;50.214;19.354;2023-11-22T06:12:27;98405.97;;;0.60;60.15
40285;BME280;25997;50.214;19.354;2023-11-22T06:15:29;98410.13;;;0.70;60.07
40285;BME280;25997;50.214;19.354;2023-11-22T06:18:32;98414.94;;;0.77;59.89
40285;BME280;25997;50.214;19.354;2023-11-22T06:21:36;98410.69;;;0.66;59.27
40285;BME280;25997;50.214;19.354;2023-11-22T06:24:39;98420.97;;;0.53;59.65
40285;BME280;25997;50.214;19.354;2023-11-22T06:27:44;98429.22;;;0.60;60.18
40285;BME280;25997;50.214;19.354;2023-11-22T06:30:46;98434.63;;;0.63;59.96
40285;BME280;25997;50.214;19.354;2023-11-22T06:33:49;98435.09;;;0.58;59.77
40285;BME280;25997;50.214;19.354;2023-11-22T06:36:53;98434.19;;;0.57;59.84
40285;BME280;25997;50.214;19.354;2023-11-22T06:39:55;98441.94;;;0.57;59.82
40285;BME280;25997;50.214;19.354;2023-11-22T06:43:00;98449.13;;;0.61;59.65
40285;BME280;25997;50.214;19.354;2023-11-22T06:46:05;98454.88;;;0.57;59.50
40285;BME280;25997;50.214;19.354;2023-11-22T06:49:07;98458.69;;;0.50;59.30
40285;BME280;25997;50.214;19.354;2023-11-22T06:52:10;98461.63;;;0.55;59.57
40285;BME280;25997;50.214;19.354;2023-11-22T06:55:13;98461.72;;;0.57;59.17
40285;BME280;25997;50.214;19.354;2023-11-22T06:58:17;98466.22;;;0.47;59.36
40285;BME280;25997;50.214;19.354;2023-11-22T07:01:22;98470.81;;;0.51;59.35
40285;BME280;25997;50.214;19.354;2023-11-22T07:04:26;98466.88;;;0.57;59.80
40285;BME280;25997;50.214;19.354;2023-11-22T07:07:30;98471.91;;;0.67;59.57
40285;BME280;25997;50.214;19.354;2023-11-22T07:10:32;98481.59;;;0.58;59.41
40285;BME280;25997;50.214;19.354;2023-11-22T07:13:36;98482.38;;;0.57;59.56
40285;BME280;25997;50.214;19.354;2023-11-22T07:16:40;98479.81;;;0.45;59.28
40285;BME280;25997;50.214;19.354;2023-11-22T07:19:43;98477.88;;;0.42;59.42
40285;BME280;25997;50.214;19.354;2023-11-22T07:22:48;98493.34;;;0.42;59.61
40285;BME280;25997;50.214;19.354;2023-11-22T07:25:55;98500.69;;;0.48;59.21
40285;BME280;25997;50.214;19.354;2023-11-22T07:29:00;98501.72;;;0.50;59.54
40285;BME280;25997;50.214;19.354;2023-11-22T07:32:03;98503.38;;;0.49;59.16
40285;BME280;25997;50.214;19.354;2023-11-22T07:35:06;98502.28;;;0.58;59.02
40285;BME280;25997;50.214;19.354;2023-11-22T07:38:10;98518.22;;;0.52;59.01
40285;BME280;25997;50.214;19.354;2023-11-22T07:41:13;98526.19;;;0.55;59.25
40285;BME280;25997;50.214;19.354;2023-11-22T07:44:17;98508.69;;;0.51;59.10
40285;BME280;25997;50.214;19.354;2023-11-22T07:47:20;98516.63;;;0.54;59.45
40285;BME280;25997;50.214;19.354;2023-11-22T07:50:24;98532.47;;;0.59;59.68
40285;BME280;25997;50.214;19.354;2023-11-22T07:53:26;98526.38;;;0.58;59.10
40285;BME280;25997;50.214;19.354;2023-11-22T07:56:30;98524.59;;;0.69;59.12
40285;BME280;25997;50.214;19.354;2023-11-22T07:59:35;98533.22;;;0.69;58.65
40285;BME280;25997;50.214;19.354;2023-11-22T08:02:37;98545.69;;;0.75;59.06
40285;BME280;25997;50.214;19.354;2023-11-22T08:05:41;98542.53;;;0.79;58.78
40285;BME280;25997;50.214;19.354;2023-11-22T08:08:49;98538.28;;;0.79;58.61
40285;BME280;25997;50.214;19.354;2023-11-22T08:11:52;98538.94;;;0.77;58.95
40285;BME280;25997;50.214;19.354;2023-11-22T08:14:57;98537.94;;;0.75;58.99
40285;BME280;25997;50.214;19.354;2023-11-22T08:17:59;98545.34;;;0.82;58.70
40285;BME280;25997;50.214;19.354;2023-11-22T08:21:02;98549.84;;;0.84;58.77
40285;BME280;25997;50.214;19.354;2023-11-22T08:24:06;98551.59;;;0.97;58.97
40285;BME280;25997;50.214;19.354;2023-11-22T08:27:09;98548.44;;;1.01;58.96
40285;BME280;25997;50.214;19.354;2023-11-22T08:30:13;98554.53;;;1.01;58.80
40285;BME280;25997;50.214;19.354;2023-11-22T08:33:16;98567.44;;;1.01;58.58
40285;BME280;25997;50.214;19.354;2023-11-22T08:36:24;98561.94;;;1.08;58.83
40285;BME280;25997;50.214;19.354;2023-11-22T08:39:33;98559.28;;;1.20;58.98
40285;BME280;25997;50.214;19.354;2023-11-22T08:42:35;98577.28;;;1.18;58.53
40285;BME280;25997;50.214;19.354;2023-11-22T08:45:39;98580.88;;;1.20;58.53
40285;BME280;25997;50.214;19.354;2023-11-22T08:48:42;98592.81;;;1.07;58.44
40285;BME280;25997;50.214;19.354;2023-11-22T08:51:45;98585.28;;;1.10;58.75
40285;BME280;25997;50.214;19.354;2023-11-22T08:54:49;98583.81;;;1.13;58.77
40285;BME280;25997;50.214;19.354;2023-11-22T08:57:52;98564.94;;;1.14;58.10
40285;BME280;25997;50.214;19.354;2023-11-22T09:00:57;98567.84;;;1.19;58.88
40285;BME280;25997;50.214;19.354;2023-11-22T09:03:59;98569.06;;;1.24;58.60
40285;BME280;25997;50.214;19.354;2023-11-22T09:07:02;98580.88;;;1.20;58.37
40285;BME280;25997;50.214;19.354;2023-11-22T09:10:07;98582.34;;;1.17;58.42
40285;BME280;25997;50.214;19.354;2023-11-22T09:13:11;98585.19;;;1.08;58.35
40285;BME280;25997;50.214;19.354;2023-11-22T09:16:18;98591.94;;;1.06;58.44
40285;BME280;25997;50.214;19.354;2023-11-22T09:19:23;98592.31;;;0.88;58.59
40285;BME280;25997;50.214;19.354;2023-11-22T09:22:26;98593.31;;;0.90;58.53
40285;BME280;25997;50.214;19.354;2023-11-22T09:25:28;98595.56;;;0.85;58.42
40285;BME280;25997;50.214;19.354;2023-11-22T09:28:31;98605.78;;;0.95;58.80
40285;BME280;25997;50.214;19.354;2023-11-22T09:31:36;98606.91;;;0.99;58.18
40285;BME280;25997;50.214;19.354;2023-11-22T09:34:39;98603.88;;;0.93;57.77
40285;BME280;25997;50.214;19.354;2023-11-22T09:37:45;98599.16;;;0.87;58.42
40285;BME280;25997;50.214;19.354;2023-11-22T09:40:48;98607.81;;;0.99;58.49
40285;BME280;25997;50.214;19.354;2023-11-22T09:43:51;98617.13;;;0.97;58.28
40285;BME280;25997;50.214;19.354;2023-11-22T09:46:55;98614.31;;;0.94;58.02
40285;BME280;25997;50.214;19.354;2023-11-22T09:50:01;98607.56;;;0.85;58.31
40285;BME280;25997;50.214;19.354;2023-11-22T09:53:10;98620.97;;;0.91;58.10
40285;BME280;25997;50.214;19.354;2023-11-22T09:56:14;98613.53;;;0.95;58.56
40285;BME280;25997;50.214;19.354;2023-11-22T09:59:20;98625.44;;;1.05;58.18
40285;BME280;25997;50.214;19.354;2023-11-22T10:02:26;98628.81;;;1.15;58.29
40285;BME280;25997;50.214;19.354;2023-11-22T10:05:29;98619.69;;;1.09;57.62
40285;BME280;25997;50.214;19.354;2023-11-22T10:08:32;98642.41;;;1.13;58.15
40285;BME280;25997;50.214;19.354;2023-11-22T10:11:36;98642.94;;;1.20;57.94
40285;BME280;25997;50.214;19.354;2023-11-22T10:14:41;98641.16;;;1.19;57.53
40285;BME280;25997;50.214;19.354;2023-11-22T10:17:54;98648.91;;;1.19;57.96
40285;BME280;25997;50.214;19.354;2023-11-22T10:21:01;98651.59;;;1.33;57.52
40285;BME280;25997;50.214;19.354;2023-11-22T10:24:05;98658.00;;;1.26;57.60
40285;BME280;25997;50.214;19.354;2023-11-22T10:27:10;98655.41;;;1.38;57.56
40285;BME280;25997;50.214;19.354;2023-11-22T10:30:13;98646.84;;;1.39;57.67
40285;BME280;25997;50.214;19.354;2023-11-22T10:33:18;98642.22;;;1.46;57.91
40285;BME280;25997;50.214;19.354;2023-11-22T10:36:24;98629.13;;;1.56;58.06
40285;BME280;25997;50.214;19.354;2023-11-22T10:39:26;98636.78;;;1.55;57.16
40285;BME280;25997;50.214;19.354;2023-11-22T10:42:29;98626.78;;;1.48;57.39
40285;BME280;25997;50.214;19.354;2023-11-22T10:45:32;98633.13;;;1.40;57.88
40285;BME280;25997;50.214;19.354;2023-11-22T10:48:36;98616.13;;;1.43;57.90
40285;BME280;25997;50.214;19.354;2023-11-22T10:51:40;98614.63;;;1.47;57.81
40285;BME280;25997;50.214;19.354;2023-11-22T10:54:47;98624.22;;;1.48;57.52
40285;BME280;25997;50.214;19.354;2023-11-22T10:57:54;98621.25;;;1.55;57.77
40285;BME280;25997;50.214;19.354;2023-11-22T11:00:58;98639.47;;;1.56;57.80
40285;BME280;25997;50.214;19.354;2023-11-22T11:04:08;98646.13;;;1.53;57.00
40285;BME280;25997;50.214;19.354;2023-11-22T11:07:14;98650.06;;;1.48;57.41
40285;BME280;25997;50.214;19.354;2023-11-22T11:10:20;98647.97;;;1.42;57.64
40285;BME280;25997;50.214;19.354;2023-11-22T11:13:24;98644.13;;;1.49;57.64
40285;BME280;25997;50.214;19.354;2023-11-22T11:16:27;98636.38;;;1.49;57.07
40285;BME280;25997;50.214;19.354;2023-11-22T11:19:33;98646.31;;;1.56;57.78
40285;BME280;25997;50.214;19.354;2023-11-22T11:22:36;98651.00;;;1.73;57.89
40285;BME280;25997;50.214;19.354;2023-11-22T11:25:39;98653.78;;;1.76;57.47
40285;BME280;25997;50.214;19.354;2023-11-22T11:28:42;98662.00;;;1.82;57.63
40285;BME280;25997;50.214;19.354;2023-11-22T11:31:45;98667.66;;;1.76;56.95
40285;BME280;25997;50.214;19.354;2023-11-22T11:34:53;98672.31;;;1.69;57.06
40285;BME280;25997;50.214;19.354;2023-11-22T11:38:02;98682.78;;;1.59;57.14
40285;BME280;25997;50.214;19.354;2023-11-22T11:41:09;98680.53;;;1.63;57.56
40285;BME280;25997;50.214;19.354;2023-11-22T11:44:12;98691.56;;;1.61;57.55
40285;BME280;25997;50.214;19.354;2023-11-22T11:47:14;98678.84;;;1.64;57.63
40285;BME280;25997;50.214;19.354;2023-11-22T11:50:20;98676.25;;;1.64;57.47
40285;BME280;25997;50.214;19.354;2023-11-22T11:53:22;98691.09;;;1.66;57.76
40285;BME280;25997;50.214;19.354;2023-11-22T11:56:25;98692.44;;;1.73;57.61
40285;BME280;25997;50.214;19.354;2023-11-22T11:59:29;98689.50;;;1.68;57.35
40285;BME280;25997;50.214;19.354;2023-11-22T12:02:33;98684.69;;;1.61;57.22
40285;BME280;25997;50.214;19.354;2023-11-22T12:05:37;98678.28;;;1.56;57.35
40285;BME280;25997;50.214;19.354;2023-11-22T12:08:40;98681.19;;;1.61;57.53
40285;BME280;25997;50.214;19.354;2023-11-22T12:11:42;98678.59;;;1.61;57.09
40285;BME280;25997;50.214;19.354;2023-11-22T12:14:47;98675.69;;;1.56;57.53
40285;BME280;25997;50.214;19.354;2023-11-22T12:17:50;98676.03;;;1.61;57.74
40285;BME280;25997;50.214;19.354;2023-11-22T12:20:57;98677.16;;;1.64;57.26
40285;BME280;25997;50.214;19.354;2023-11-22T12:24:00;98679.16;;;1.68;57.58
40285;BME280;25997;50.214;19.354;2023-11-22T12:27:04;98680.50;;;1.75;57.56
40285;BME280;25997;50.214;19.354;2023-11-22T12:30:28;98680.59;;;1.76;56.92
40285;BME280;25997;50.214;19.354;2023-11-22T12:33:31;98682.28;;;1.76;57.50
40285;BME280;25997;50.214;19.354;2023-11-22T12:36:35;98668.81;;;1.68;57.00
40285;BME280;25997;50.214;19.354;2023-11-22T12:39:39;98691.56;;;1.61;57.52
40285;BME280;25997;50.214;19.354;2023-11-22T12:42:47;98693.34;;;1.62;57.52
40285;BME280;25997;50.214;19.354;2023-11-22T12:45:58;98706.97;;;1.59;57.20
40285;BME280;25997;50.214;19.354;2023-11-22T12:49:05;98699.78;;;1.55;57.58
40285;BME280;25997;50.214;19.354;2023-11-22T12:52:09;98709.22;;;1.55;57.51
40285;BME280;25997;50.214;19.354;2023-11-22T12:55:11;98715.50;;;1.58;57.42
40285;BME280;25997;50.214;19.354;2023-11-22T12:58:15;98709.81;;;1.51;57.18
40285;BME280;25997;50.214;19.354;2023-11-22T13:01:17;98721.09;;;1.40;56.98
40285;BME280;25997;50.214;19.354;2023-11-22T13:04:21;98708.91;;;1.39;57.33
40285;BME280;25997;50.214;19.354;2023-11-22T13:07:25;98701.63;;;1.33;57.16
40285;BME280;25997;50.214;19.354;2023-11-22T13:10:27;98686.22;;;1.35;57.45
40285;BME280;25997;50.214;19.354;2023-11-22T13:13:30;98684.97;;;1.30;57.38
40285;BME280;25997;50.214;19.354;2023-11-22T13:16:32;98699.06;;;1.21;57.28
40285;BME280;25997;50.214;19.354;2023-11-22T13:19:36;98700.63;;;1.19;57.25
40285;BME280;25997;50.214;19.354;2023-11-22T13:22:42;98697.72;;;1.15;57.37
40285;BME280;25997;50.214;19.354;2023-11-22T13:25:45;98691.88;;;1.06;57.06
40285;BME280;25997;50.214;19.354;2023-11-22T13:28:48;98694.78;;;0.99;57.10
40285;BME280;25997;50.214;19.354;2023-11-22T13:31:50;98698.03;;;0.96;57.15
40285;BME280;25997;50.214;19.354;2023-11-22T13:34:53;98709.28;;;0.97;57.36
40285;BME280;25997;50.214;19.354;2023-11-22T13:37:59;98715.69;;;0.90;56.94
40285;BME280;25997;50.214;19.354;2023-11-22T13:41:03;98716.94;;;0.95;57.43
40285;BME280;25997;50.214;19.354;2023-11-22T13:44:05;98716.81;;;0.94;57.58
40285;BME280;25997;50.214;19.354;2023-11-22T13:47:08;98735.03;;;0.95;57.77
40285;BME280;25997;50.214;19.354;2023-11-22T13:50:11;98741.22;;;0.97;57.48
40285;BME280;25997;50.214;19.354;2023-11-22T13:53:17;98735.38;;;1.00;57.66
40285;BME280;25997;50.214;19.354;2023-11-22T13:56:22;98729.31;;;0.99;57.42
40285;BME280;25997;50.214;19.354;2023-11-22T13:59:25;98736.91;;;0.98;57.45
40285;BME280;25997;50.214;19.354;2023-11-22T14:02:28;98732.31;;;0.94;57.45
40285;BME280;25997;50.214;19.354;2023-11-22T14:05:33;98757.25;;;0.93;57.56
40285;BME280;25997;50.214;19.354;2023-11-22T14:08:39;98770.97;;;0.92;57.63
40285;BME280;25997;50.214;19.354;2023-11-22T14:11:41;98770.63;;;0.88;57.49
40285;BME280;25997;50.214;19.354;2023-11-22T14:14:44;98775.31;;;0.70;57.26
40285;BME280;25997;50.214;19.354;2023-11-22T14:17:47;98785.22;;;0.64;57.48
40285;BME280;25997;50.214;19.354;2023-11-22T14:20:52;98787.00;;;0.65;57.83
40285;BME280;25997;50.214;19.354;2023-11-22T14:23:56;98789.69;;;0.67;57.77
40285;BME280;25997;50.214;19.354;2023-11-22T14:26:59;98780.25;;;0.67;57.79
40285;BME280;25997;50.214;19.354;2023-11-22T14:30:01;98762.97;;;0.66;57.57
40285;BME280;25997;50.214;19.354;2023-11-22T14:33:08;98788.31;;;0.60;57.69
40285;BME280;25997;50.214;19.354;2023-11-22T14:36:10;98789.41;;;0.52;57.74
40285;BME280;25997;50.214;19.354;2023-11-22T14:39:15;98786.59;;;0.49;57.88
40285;BME280;25997;50.214;19.354;2023-11-22T14:42:17;98785.16;;;0.53;58.00
40285;BME280;25997;50.214;19.354;2023-11-22T14:45:20;98771.44;;;0.53;57.85
40285;BME280;25997;50.214;19.354;2023-11-22T14:48:22;98776.81;;;0.45;57.59
40285;BME280;25997;50.214;19.354;2023-11-22T14:51:25;98783.66;;;0.44;57.63
40285;BME280;25997;50.214;19.354;2023-11-22T14:54:29;98788.22;;;0.37;57.75
40285;BME280;25997;50.214;19.354;2023-11-22T14:57:32;98782.25;;;0.38;57.87
40285;BME280;25997;50.214;19.354;2023-11-22T15:00:34;98766.91;;;0.39;57.94
40285;BME280;25997;50.214;19.354;2023-11-22T15:03:37;98760.28;;;0.43;57.54
40285;BME280;25997;50.214;19.354;2023-11-22T15:06:40;98760.56;;;0.46;58.02
40285;BME280;25997;50.214;19.354;2023-11-22T15:09:46;98771.94;;;0.60;57.95
40285;BME280;25997;50.214;19.354;2023-11-22T15:12:48;98773.97;;;0.64;57.48
40285;BME280;25997;50.214;19.354;2023-11-22T15:15:51;98774.97;;;0.66;57.66
40285;BME280;25997;50.214;19.354;2023-11-22T15:18:54;98771.38;;;0.64;57.70
40285;BME280;25997;50.214;19.354;2023-11-22T15:21:56;98749.56;;;0.60;57.57
40285;BME280;25997;50.214;19.354;2023-11-22T15:25:01;98745.91;;;0.68;57.90
40285;BME280;25997;50.214;19.354;2023-11-22T15:28:03;98746.81;;;0.69;57.74
40285;BME280;25997;50.214;19.354;2023-11-22T15:31:05;98750.75;;;0.75;57.88
40285;BME280;25997;50.214;19.354;2023-11-22T15:34:08;98759.19;;;0.84;57.71
40285;BME280;25997;50.214;19.354;2023-11-22T15:37:11;98770.53;;;0.86;57.47
40285;BME280;25997;50.214;19.354;2023-11-22T15:40:15;98769.94;;;0.79;57.32
40285;BME280;25997;50.214;19.354;2023-11-22T15:43:18;98773.41;;;0.68;57.10
40285;BME280;25997;50.214;19.354;2023-11-22T15:46:20;98777.56;;;0.66;57.53
40285;BME280;25997;50.214;19.354;2023-11-22T15:49:25;98763.97;;;0.68;57.83
40285;BME280;25997;50.214;19.354;2023-11-22T15:52:27;98765.91;;;0.71;57.75
40285;BME280;25997;50.214;19.354;2023-11-22T15:55:31;98775.22;;;0.69;57.45
40285;BME280;25997;50.214;19.354;2023-11-22T15:58:34;98767.56;;;0.70;57.52
40285;BME280;25997;50.214;19.354;2023-11-22T16:01:37;98767.81;;;0.73;57.55
40285;BME280;25997;50.214;19.354;2023-11-22T16:04:40;98778.16;;;0.73;57.29
40285;BME280;25997;50.214;19.354;2023-11-22T16:07:43;98781.25;;;0.69;57.83
40285;BME280;25997;50.214;19.354;2023-11-22T16:10:47;98775.69;;;0.75;57.89
40285;BME280;25997;50.214;19.354;2023-11-22T16:13:49;98771.63;;;0.78;57.55